AirNav   Everest Fuels
 
 987 users online  

6WI2 St Croix Riviera Airport
River Falls, Wisconsin, USA

GOING TO RIVER FALLS?


FAA INFORMATION EFFECTIVE 27 JANUARY 2022

Location

FAA Identifier: 6WI2
Lat/Long: 44-50-37.8830N 092-45-20.7260W
44-50.631383N 092-45.345433W
44.8438564,-92.7557572
(estimated)
Elevation: 895 ft. / 273 m (estimated)
Variation: 03E (1985)
From city: 5 miles W of RIVER FALLS, WI
Time zone: UTC -6 (UTC -5 during Daylight Saving Time)
Zip code: 54022

Airport Operations

Airport use: Private use. Permission required prior to landing
Activation date: 12/1969
Control tower: no
ARTCC: MINNEAPOLIS CENTER
FSS: GREEN BAY FLIGHT SERVICE STATION
Attendance: UNATNDD
Wind indicator: yes
Segmented circle: no
Lights: ACTVT LIRL RWY NW/SE - 122.9.

Airport Communications

WX AWOS-3 at 21D (10 nm NW): 120.075 (651-779-5949)
WX AWOS-3 at SGS (12 nm W): 119.425 (651-457-8120)
WX ASOS at STP (14 nm NW): 118.35 (651-312-8888)
WX AWOS-3 at RGK (19 nm SE): 119.25 (715-594-3763)
WX ASOS at MSP (20 nm W): PHONE 612-713-4174

Nearby radio navigation aids

VOR radial/distance  VOR name  Freq  Var
MSPr097/20.7MINNEAPOLIS VOR/DME115.3002E
FGTr049/22.2FARMINGTON VORTAC115.7006E
FCMr087/29.2FLYING CLOUD VOR/DME117.7001E
GEPr119/31.8GOPHER VORTAC117.3006E

Airport Services

Airframe service: NONE
Powerplant service: NONE

Runway Information

Runway NW/SE

Dimensions: 1700 x 100 ft. / 518 x 30 m
Surface: turf
Runway edge lights: low intensity
RUNWAY NW  RUNWAY SE
Traffic pattern: rightleft
Displaced threshold: no650 ft.
DSPLCD THLD MKD WITH ORANGE & WHITE MARKERS.
Obstructions: 50 ft. trees, 1400 ft. from runway25 ft. trees, 650 ft. from runway

Airport Ownership and Management from official FAA records

Ownership: Privately-owned
Owner: RIVIERA AIRPORT INC.
PO BOX 545
RIVER FALLS, WI 54022
Manager: MATT SCHMIDT
W12523 850TH AVE
RIVER FALLS, WI 54022
Phone 651-592-8493

Airport Operational Statistics

Aircraft based on the field: 7
Single engine airplanes: 7
    

Additional Remarks

SPECIAL OPRG PROCEDURES ARE IN EFFECT DUE TO THE PROXIMITY TO THE ST CROIX NATL SCENIC RIVERWAY. ACFT OPNS IN THE 1400 FT GRASS AREA BYD THE THLD MARKERSRY NW IS PROHIBITED. HOWEVER THIS AREA IS WELL MAINTAINED AND ACFT UNDER TOW ARE PERMITTED IN THIS AREA.
FOR CD CTC MINNEAPOLIS ARTCC AT 651-463-5588.

Instrument Procedures

There are no published instrument procedures at 6WI2.

Some nearby airports with instrument procedures:

21D - Lake Elmo Airport (10 nm NW)
KSGS - South St Paul Municipal Airport-Richard E Fleming Field (12 nm W)
KSTP - St Paul Downtown Airport Holman Field (14 nm NW)
KRGK - Red Wing Regional Airport (19 nm SE)
KMSP - Minneapolis-St Paul International/Wold-Chamberlain Airport (20 nm W)
 
Loc | Ops | Rwys | IFR | FBO | Links
Com | Nav | Svcs | Stats | Notes
Area around 6WI2 (St Croix Riviera Airport)
 
Road maps at: MapQuest Bing Google
 
Aerial photo
No photo
 
Sectional chart

 
Airport distance calculator
Flying to St Croix Riviera Airport? Find the distance to fly.

From to 6WI2

Sunrise and sunset
Times for 29-Jan-2022
 Local
(UTC-6)
 Zulu
(UTC)
Morning civil twilight07:0313:03
Sunrise07:3513:35
Sunset17:1423:14
Evening civil twilight17:4523:45

Current date and time
Zulu (UTC)  29-Jan-2022 08:09:52
Local (UTC-6)  29-Jan-2022 02:09:52
 
METAR
K21D 
10nm NW 
290755Z AUTO 00000KT 10SM OVC028 M13/M17 A3014 RMK AO2
KSTP 
14nm NW 
290800Z AUTO 17003KT 10SM BKN025 OVC033 M13/M17 A3016 RMK AO2 T11281167
KSGS 
17nm W 
290755Z AUTO 00000KT 10SM BKN024 OVC033 M13/M17 A3014 RMK AO2 T11311170
TAF
NOTAMs
Click for the latest NOTAMs
NOTAMs are issued by the DoD/FAA and will open in a separate window not controlled by AirNav.

 

 
 

Would you like to see your business listed on this page?

 If your business provides an interesting product or service to pilots, flight crews, aircraft, or users of the St Croix Riviera Airport, you should consider listing it here.  To start the listing process, click on the button below
 
Add a business
 

Other Pages about St Croix Riviera Airport

Update a link
 
Copyright © AirNav, LLC. All rights reserved. Privacy Policy  Contact